Wetterdaten: Woche 13.08.18 - 19.08.18 (KW33)
Datum Zeit Temperatur Luftfeuchte Luftdruck Niederschlag Windrichtung Sonnenschein Solar Wind
13.08.2018 00:00 16,3 C 84 % 1009,9 hPa 0,0 l/m N 0,00 h 0 W/m 0,0 km/h (0 Bft)
13.08.2018 01:00 15,4 C 88 % 1009,5 hPa 0,0 l/m N 0,00 h 0 W/m 0,0 km/h (0 Bft)
13.08.2018 02:00 14,8 C 89 % 1008,9 hPa 0,0 l/m N 0,00 h 0 W/m 0,0 km/h (0 Bft)
13.08.2018 03:00 14,1 C 91 % 1008,4 hPa 0,0 l/m N 0,00 h 0 W/m 0,0 km/h (0 Bft)
13.08.2018 04:00 13,7 C 92 % 1008,3 hPa 0,0 l/m N 0,00 h 0 W/m 0,0 km/h (0 Bft)
13.08.2018 05:00 13,5 C 93 % 1008,2 hPa 0,0 l/m N 0,00 h 0 W/m 0,0 km/h (0 Bft)
13.08.2018 06:00 13,4 C 94 % 1007,8 hPa 0,0 l/m N 0,08 h 18 W/m 0,0 km/h (0 Bft)
13.08.2018 07:00 15,4 C 91 % 1008,0 hPa 0,0 l/m N 0,58 h 112 W/m 0,0 km/h (0 Bft)
13.08.2018 08:00 18,1 C 82 % 1008,0 hPa 0,0 l/m SW 0,92 h 279 W/m 0,4 km/h (0 Bft)
13.08.2018 09:00 21,9 C 70 % 1008,1 hPa 0,0 l/m S-SW 0,83 h 405 W/m 14,2 km/h (3 Bft)
13.08.2018 10:00 24,8 C 56 % 1008,2 hPa 0,0 l/m W-SW 0,92 h 551 W/m 17,7 km/h (3 Bft)
13.08.2018 11:00 25,5 C 52 % 1008,4 hPa 0,0 l/m W-SW 0,50 h 409 W/m 22,1 km/h (4 Bft)
13.08.2018 12:00 25,4 C 54 % 1008,5 hPa 0,0 l/m W-SW 0,67 h 457 W/m 20,1 km/h (4 Bft)
13.08.2018 13:00 24,4 C 55 % 1008,2 hPa 0,0 l/m W 0,00 h 326 W/m 17,6 km/h (3 Bft)
13.08.2018 14:00 22,6 C 63 % 1008,5 hPa 0,0 l/m SW 0,00 h 220 W/m 21,2 km/h (4 Bft)
13.08.2018 15:00 19,7 C 82 % 1008,7 hPa 0,2 l/m SW 0,00 h 192 W/m 15,4 km/h (3 Bft)
13.08.2018 16:00 18,7 C 90 % 1008,4 hPa 0,2 l/m SW 0,00 h 204 W/m 18,8 km/h (3 Bft)
13.08.2018 17:00 19,4 C 87 % 1007,7 hPa 0,0 l/m SW 0,33 h 291 W/m 21,0 km/h (4 Bft)
13.08.2018 18:00 19,4 C 85 % 1007,4 hPa 0,0 l/m SW 0,00 h 127 W/m 16,0 km/h (3 Bft)
13.08.2018 19:00 19,5 C 84 % 1007,6 hPa 0,0 l/m SW 0,50 h 99 W/m 13,8 km/h (3 Bft)
13.08.2018 20:00 18,9 C 87 % 1008,4 hPa 0,0 l/m SW 0,00 h 18 W/m 7,9 km/h (2 Bft)
13.08.2018 21:00 18,6 C 89 % 1008,7 hPa 0,0 l/m SW 0,00 h 0 W/m 8,7 km/h (2 Bft)
13.08.2018 22:00 17,7 C 92 % 1009,1 hPa 0,0 l/m SW 0,00 h 0 W/m 5,2 km/h (1 Bft)
13.08.2018 23:00 16,6 C 95 % 1009,8 hPa 0,2 l/m SW 0,00 h 0 W/m 4,0 km/h (1 Bft)
14.08.2018 00:00 16,2 C 96 % 1010,3 hPa 0,0 l/m SW 0,00 h 0 W/m 5,1 km/h (1 Bft)
14.08.2018 01:00 16,2 C 97 % 1010,4 hPa 0,0 l/m SW 0,00 h 0 W/m 3,2 km/h (1 Bft)
14.08.2018 02:00 16,1 C 97 % 1010,3 hPa 0,0 l/m SW 0,00 h 0 W/m 5,2 km/h (1 Bft)
14.08.2018 03:00 16,2 C 97 % 1010,5 hPa 0,0 l/m N 0,00 h 0 W/m 0,8 km/h (0 Bft)
14.08.2018 04:00 16,2 C 97 % 1010,4 hPa 0,0 l/m N 0,00 h 0 W/m 2,4 km/h (1 Bft)
14.08.2018 05:00 15,9 C 97 % 1010,5 hPa 0,0 l/m SW 0,00 h 0 W/m 1,2 km/h (1 Bft)
14.08.2018 06:00 15,2 C 98 % 1010,9 hPa 0,0 l/m N 0,00 h 13 W/m 0,0 km/h (0 Bft)
14.08.2018 07:00 15,1 C 98 % 1011,7 hPa 0,0 l/m N 0,00 h 54 W/m 0,7 km/h (0 Bft)
14.08.2018 08:00 16,2 C 96 % 1012,3 hPa 0,0 l/m SW 0,08 h 147 W/m 3,7 km/h (1 Bft)
14.08.2018 09:00 17,6 C 88 % 1012,5 hPa 0,0 l/m SW 0,33 h 284 W/m 9,0 km/h (2 Bft)
14.08.2018 10:00 19,6 C 75 % 1012,7 hPa 0,0 l/m W-NW 0,58 h 463 W/m 13,7 km/h (3 Bft)
14.08.2018 11:00 20,2 C 69 % 1012,7 hPa 0,0 l/m W-NW 0,33 h 468 W/m 13,0 km/h (3 Bft)
14.08.2018 12:00 21,3 C 63 % 1012,7 hPa 0,0 l/m W-SW 0,08 h 313 W/m 13,3 km/h (3 Bft)
14.08.2018 13:00 21,7 C 62 % 1012,8 hPa 0,0 l/m W-NW 0,25 h 462 W/m 10,5 km/h (2 Bft)
14.08.2018 14:00 22,8 C 54 % 1012,8 hPa 0,0 l/m W-NW 0,42 h 558 W/m 13,2 km/h (3 Bft)
14.08.2018 15:00 23,0 C 59 % 1012,8 hPa 0,0 l/m W 0,25 h 334 W/m 11,4 km/h (2 Bft)
14.08.2018 16:00 23,7 C 49 % 1012,9 hPa 0,0 l/m N-NW 0,25 h 343 W/m 12,6 km/h (3 Bft)
14.08.2018 17:00 23,4 C 52 % 1013,0 hPa 0,0 l/m NW 0,33 h 273 W/m 9,8 km/h (2 Bft)
14.08.2018 18:00 22,4 C 64 % 1013,2 hPa 0,0 l/m SW 0,25 h 154 W/m 13,0 km/h (3 Bft)
14.08.2018 19:00 21,5 C 70 % 1013,7 hPa 0,0 l/m SW 0,75 h 117 W/m 9,3 km/h (2 Bft)
14.08.2018 20:00 20,2 C 76 % 1014,6 hPa 0,0 l/m SW 0,25 h 19 W/m 4,6 km/h (1 Bft)
14.08.2018 21:00 18,3 C 74 % 1015,4 hPa 0,0 l/m N 0,00 h 0 W/m 0,8 km/h (0 Bft)
14.08.2018 22:00 16,7 C 77 % 1016,0 hPa 0,0 l/m N 0,00 h 0 W/m 0,0 km/h (0 Bft)
14.08.2018 23:00 15,3 C 84 % 1016,3 hPa 0,0 l/m N 0,00 h 0 W/m 0,1 km/h (0 Bft)
15.08.2018 00:00 14,3 C 87 % 1016,6 hPa 0,0 l/m N 0,00 h 0 W/m 0,0 km/h (0 Bft)
15.08.2018 01:00 13,4 C 90 % 1016,8 hPa 0,0 l/m N 0,00 h 0 W/m 0,0 km/h (0 Bft)
15.08.2018 02:00 13,0 C 93 % 1017,0 hPa 0,0 l/m N 0,00 h 0 W/m 0,0 km/h (0 Bft)
15.08.2018 03:00 12,3 C 94 % 1017,2 hPa 0,0 l/m N 0,00 h 0 W/m 0,0 km/h (0 Bft)
15.08.2018 04:00 11,9 C 96 % 1017,3 hPa 0,0 l/m N 0,00 h 0 W/m 0,0 km/h (0 Bft)
15.08.2018 05:00 11,5 C 96 % 1017,5 hPa 0,0 l/m N 0,00 h 0 W/m 0,0 km/h (0 Bft)
15.08.2018 06:00 11,5 C 97 % 1017,7 hPa 0,0 l/m N 0,08 h 20 W/m 0,0 km/h (0 Bft)
15.08.2018 07:00 12,3 C 96 % 1017,9 hPa 0,0 l/m N 0,42 h 99 W/m 0,0 km/h (0 Bft)
15.08.2018 08:00 15,4 C 88 % 1018,0 hPa 0,0 l/m N 1,00 h 289 W/m 0,0 km/h (0 Bft)
15.08.2018 09:00 18,3 C 77 % 1018,1 hPa 0,0 l/m N 0,92 h 429 W/m 0,5 km/h (0 Bft)
15.08.2018 10:00 20,0 C 70 % 1018,3 hPa 0,0 l/m S-SW 0,58 h 478 W/m 5,3 km/h (1 Bft)
15.08.2018 11:00 21,6 C 61 % 1018,2 hPa 0,0 l/m N-NW 0,83 h 717 W/m 6,8 km/h (2 Bft)
15.08.2018 12:00 22,6 C 55 % 1017,9 hPa 0,0 l/m N-NO 0,42 h 527 W/m 6,7 km/h (2 Bft)
15.08.2018 13:00 22,6 C 56 % 1017,8 hPa 0,0 l/m N 0,50 h 439 W/m 9,8 km/h (2 Bft)
15.08.2018 14:00 23,8 C 50 % 1017,5 hPa 0,0 l/m O 0,42 h 488 W/m 10,1 km/h (2 Bft)
15.08.2018 15:00 24,2 C 51 % 1017,1 hPa 0,0 l/m O-NO 0,42 h 499 W/m 5,9 km/h (2 Bft)
15.08.2018 16:00 24,7 C 46 % 1016,7 hPa 0,0 l/m O-NO 0,42 h 317 W/m 6,8 km/h (2 Bft)
15.08.2018 17:00 23,9 C 49 % 1016,5 hPa 0,0 l/m N 0,67 h 333 W/m 3,1 km/h (1 Bft)
15.08.2018 18:00 24,6 C 46 % 1016,3 hPa 0,0 l/m NO 1,00 h 264 W/m 3,3 km/h (1 Bft)
15.08.2018 19:00 23,6 C 49 % 1016,2 hPa 0,0 l/m NO 0,42 h 89 W/m 4,3 km/h (1 Bft)
15.08.2018 20:00 20,4 C 61 % 1016,4 hPa 0,0 l/m N 0,00 h 14 W/m 0,3 km/h (0 Bft)
15.08.2018 21:00 18,3 C 69 % 1016,8 hPa 0,0 l/m N 0,00 h 0 W/m 0,5 km/h (0 Bft)
15.08.2018 22:00 17,0 C 76 % 1017,1 hPa 0,0 l/m N 0,00 h 0 W/m 0,0 km/h (0 Bft)
15.08.2018 23:00 16,1 C 81 % 1017,0 hPa 0,0 l/m N 0,00 h 0 W/m 0,0 km/h (0 Bft)
16.08.2018 00:00 15,3 C 84 % 1016,8 hPa 0,0 l/m N 0,00 h 0 W/m 0,0 km/h (0 Bft)
16.08.2018 01:00 15,0 C 85 % 1016,8 hPa 0,0 l/m N 0,00 h 0 W/m 0,7 km/h (0 Bft)
16.08.2018 02:00 15,0 C 85 % 1016,5 hPa 0,0 l/m N 0,00 h 0 W/m 0,7 km/h (0 Bft)
16.08.2018 03:00 14,8 C 85 % 1016,1 hPa 0,0 l/m N 0,00 h 0 W/m 0,1 km/h (0 Bft)
16.08.2018 04:00 13,9 C 88 % 1015,9 hPa 0,0 l/m N 0,00 h 0 W/m 0,0 km/h (0 Bft)
16.08.2018 05:00 13,3 C 91 % 1015,7 hPa 0,0 l/m N 0,00 h 0 W/m 0,3 km/h (0 Bft)
16.08.2018 06:00 12,6 C 93 % 1015,8 hPa 0,0 l/m N 0,08 h 17 W/m 0,0 km/h (0 Bft)
16.08.2018 07:00 13,7 C 91 % 1015,7 hPa 0,0 l/m N 0,42 h 96 W/m 0,0 km/h (0 Bft)
16.08.2018 08:00 15,9 C 84 % 1015,5 hPa 0,0 l/m N 0,83 h 263 W/m 0,8 km/h (0 Bft)
16.08.2018 09:00 19,2 C 73 % 1015,2 hPa 0,0 l/m N 0,92 h 388 W/m 0,9 km/h (0 Bft)
16.08.2018 10:00 21,8 C 64 % 1015,0 hPa 0,0 l/m NO 0,92 h 551 W/m 0,5 km/h (0 Bft)
16.08.2018 11:00 24,1 C 55 % 1014,5 hPa 0,0 l/m NO 1,00 h 719 W/m 4,4 km/h (1 Bft)
16.08.2018 12:00 25,9 C 49 % 1013,9 hPa 0,0 l/m O 1,00 h 791 W/m 11,7 km/h (2 Bft)
16.08.2018 13:00 27,5 C 41 % 1013,3 hPa 0,0 l/m O 1,00 h 817 W/m 12,9 km/h (3 Bft)
16.08.2018 14:00 28,0 C 40 % 1012,9 hPa 0,0 l/m O-SO 1,00 h 785 W/m 10,7 km/h (2 Bft)
16.08.2018 15:00 28,6 C 40 % 1012,3 hPa 0,0 l/m S-SW 1,00 h 713 W/m 11,5 km/h (2 Bft)
16.08.2018 16:00 29,0 C 38 % 1011,6 hPa 0,0 l/m NO 1,00 h 590 W/m 10,3 km/h (2 Bft)
16.08.2018 17:00 29,1 C 37 % 1011,3 hPa 0,0 l/m O-SO 1,00 h 437 W/m 10,6 km/h (2 Bft)
16.08.2018 18:00 28,4 C 38 % 1011,0 hPa 0,0 l/m O-SO 1,00 h 263 W/m 6,3 km/h (2 Bft)
16.08.2018 19:00 27,3 C 40 % 1010,8 hPa 0,0 l/m O-SO 0,42 h 81 W/m 3,5 km/h (1 Bft)
16.08.2018 20:00 23,6 C 52 % 1010,9 hPa 0,0 l/m N 0,08 h 13 W/m 0,0 km/h (0 Bft)
16.08.2018 21:00 20,5 C 63 % 1011,3 hPa 0,0 l/m N 0,00 h 0 W/m 0,0 km/h (0 Bft)
16.08.2018 22:00 18,7 C 70 % 1011,4 hPa 0,0 l/m N 0,00 h 0 W/m 0,0 km/h (0 Bft)
16.08.2018 23:00 17,7 C 75 % 1011,5 hPa 0,0 l/m N 0,00 h 0 W/m 0,0 km/h (0 Bft)
17.08.2018 00:00 17,0 C 78 % 1011,4 hPa 0,0 l/m N 0,00 h 0 W/m 0,0 km/h (0 Bft)
17.08.2018 01:00 16,6 C 80 % 1011,3 hPa 0,0 l/m N 0,00 h 0 W/m 0,0 km/h (0 Bft)
17.08.2018 02:00 16,0 C 82 % 1011,2 hPa 0,0 l/m N 0,00 h 0 W/m 0,3 km/h (0 Bft)
17.08.2018 03:00 15,0 C 85 % 1011,4 hPa 0,0 l/m N 0,00 h 0 W/m 0,0 km/h (0 Bft)
17.08.2018 04:00 14,0 C 89 % 1011,2 hPa 0,0 l/m N 0,00 h 0 W/m 0,0 km/h (0 Bft)
17.08.2018 05:00 13,4 C 92 % 1011,3 hPa 0,0 l/m N 0,00 h 0 W/m 0,0 km/h (0 Bft)
17.08.2018 06:00 13,0 C 93 % 1011,7 hPa 0,0 l/m N 0,08 h 19 W/m 0,0 km/h (0 Bft)
17.08.2018 07:00 13,8 C 91 % 1012,1 hPa 0,0 l/m N 0,42 h 113 W/m 0,0 km/h (0 Bft)
17.08.2018 08:00 16,8 C 83 % 1012,4 hPa 0,0 l/m O-SO 0,75 h 248 W/m 0,8 km/h (0 Bft)
17.08.2018 09:00 20,0 C 76 % 1012,3 hPa 0,0 l/m S 0,83 h 371 W/m 8,6 km/h (2 Bft)
17.08.2018 10:00 23,0 C 69 % 1012,4 hPa 0,0 l/m S 0,92 h 549 W/m 11,0 km/h (2 Bft)
17.08.2018 11:00 25,4 C 61 % 1012,4 hPa 0,0 l/m S-SW 1,00 h 698 W/m 12,6 km/h (3 Bft)
17.08.2018 12:00 27,0 C 56 % 1012,1 hPa 0,0 l/m S 1,00 h 787 W/m 15,6 km/h (3 Bft)
17.08.2018 13:00 28,7 C 48 % 1011,7 hPa 0,0 l/m S 0,92 h 818 W/m 16,2 km/h (3 Bft)
17.08.2018 14:00 26,5 C 45 % 1012,0 hPa 0,0 l/m NO 0,00 h 161 W/m 11,5 km/h (2 Bft)
17.08.2018 15:00 23,0 C 66 % 1012,4 hPa 0,0 l/m W-NW 0,00 h 141 W/m 12,5 km/h (3 Bft)
17.08.2018 16:00 22,8 C 66 % 1012,1 hPa 0,0 l/m NW 0,17 h 281 W/m 11,5 km/h (2 Bft)
17.08.2018 17:00 26,1 C 52 % 1011,7 hPa 0,0 l/m N-NW 0,92 h 363 W/m 5,5 km/h (1 Bft)
17.08.2018 18:00 25,3 C 54 % 1012,2 hPa 0,0 l/m NW 0,00 h 90 W/m 11,9 km/h (2 Bft)
17.08.2018 19:00 23,7 C 55 % 1013,0 hPa 0,0 l/m W-NW 0,00 h 41 W/m 19,3 km/h (3 Bft)
17.08.2018 20:00 21,3 C 64 % 1013,6 hPa 0,0 l/m W 0,00 h 8 W/m 8,3 km/h (2 Bft)
17.08.2018 21:00 20,2 C 69 % 1014,5 hPa 0,0 l/m SW 0,00 h 0 W/m 5,6 km/h (1 Bft)
17.08.2018 22:00 18,7 C 79 % 1015,2 hPa 0,0 l/m SW 0,00 h 0 W/m 7,0 km/h (2 Bft)
17.08.2018 23:00 18,6 C 79 % 1015,7 hPa 0,0 l/m SW 0,00 h 0 W/m 7,4 km/h (2 Bft)
18.08.2018 00:00 18,2 C 82 % 1016,0 hPa 0,0 l/m N 0,00 h 0 W/m 0,4 km/h (0 Bft)
18.08.2018 01:00 17,5 C 86 % 1016,4 hPa 0,0 l/m N 0,00 h 0 W/m 0,9 km/h (0 Bft)
18.08.2018 02:00 17,3 C 87 % 1016,6 hPa 0,0 l/m N 0,00 h 0 W/m 0,5 km/h (0 Bft)
18.08.2018 03:00 17,1 C 90 % 1016,9 hPa 0,0 l/m N 0,00 h 0 W/m 1,1 km/h (0 Bft)
18.08.2018 04:00 16,6 C 95 % 1016,9 hPa 0,4 l/m N 0,00 h 0 W/m 0,0 km/h (0 Bft)
18.08.2018 05:00 16,3 C 97 % 1016,9 hPa 0,0 l/m N 0,00 h 0 W/m 0,0 km/h (0 Bft)
18.08.2018 06:00 16,2 C 97 % 1017,0 hPa 0,2 l/m N 0,00 h 19 W/m 0,0 km/h (0 Bft)
18.08.2018 07:00 16,6 C 97 % 1017,2 hPa 0,0 l/m N 0,00 h 54 W/m 0,0 km/h (0 Bft)
18.08.2018 08:00 17,4 C 93 % 1017,4 hPa 0,0 l/m N 0,00 h 108 W/m 0,9 km/h (0 Bft)
18.08.2018 09:00 18,5 C 87 % 1017,4 hPa 0,0 l/m N 0,00 h 231 W/m 0,0 km/h (0 Bft)
18.08.2018 10:00 20,2 C 80 % 1017,8 hPa 0,0 l/m N 0,92 h 398 W/m 0,7 km/h (0 Bft)
18.08.2018 11:00 21,7 C 76 % 1017,9 hPa 0,0 l/m W-SW 0,50 h 431 W/m 4,5 km/h (1 Bft)
18.08.2018 12:00 23,4 C 69 % 1017,6 hPa 0,0 l/m NO 1,00 h 747 W/m 8,6 km/h (2 Bft)
18.08.2018 13:00 25,0 C 63 % 1017,6 hPa 0,0 l/m O-SO 0,92 h 765 W/m 11,0 km/h (2 Bft)
18.08.2018 14:00 26,6 C 56 % 1017,3 hPa 0,0 l/m O-SO 1,00 h 798 W/m 13,3 km/h (3 Bft)
18.08.2018 15:00 26,8 C 54 % 1016,9 hPa 0,0 l/m O 0,75 h 594 W/m 13,3 km/h (3 Bft)
18.08.2018 16:00 26,9 C 54 % 1016,4 hPa 0,0 l/m O-NO 0,83 h 540 W/m 13,4 km/h (3 Bft)
18.08.2018 17:00 26,2 C 54 % 1016,3 hPa 0,0 l/m O-NO 0,42 h 235 W/m 12,8 km/h (3 Bft)
18.08.2018 18:00 26,2 C 53 % 1016,3 hPa 0,0 l/m O-NO 0,92 h 233 W/m 13,0 km/h (3 Bft)
18.08.2018 19:00 25,4 C 55 % 1016,5 hPa 0,0 l/m NO 0,17 h 67 W/m 5,4 km/h (1 Bft)
18.08.2018 20:00 22,5 C 68 % 1017,1 hPa 0,0 l/m N 0,00 h 11 W/m 0,5 km/h (0 Bft)
18.08.2018 21:00 21,4 C 71 % 1017,6 hPa 0,0 l/m N 0,00 h 0 W/m 2,7 km/h (1 Bft)
18.08.2018 22:00 20,1 C 76 % 1018,0 hPa 0,0 l/m N 0,00 h 0 W/m 2,3 km/h (1 Bft)
18.08.2018 23:00 19,3 C 78 % 1018,4 hPa 0,0 l/m NO 0,00 h 0 W/m 0,7 km/h (0 Bft)
19.08.2018 00:00 18,5 C 80 % 1018,6 hPa 0,0 l/m N 0,00 h 0 W/m 0,7 km/h (0 Bft)
19.08.2018 01:00 17,9 C 81 % 1018,5 hPa 0,0 l/m N 0,00 h 0 W/m 0,0 km/h (0 Bft)
19.08.2018 02:00 17,4 C 85 % 1018,4 hPa 0,0 l/m N 0,00 h 0 W/m 0,0 km/h (0 Bft)
19.08.2018 03:00 16,6 C 87 % 1018,3 hPa 0,0 l/m N 0,00 h 0 W/m 0,0 km/h (0 Bft)
19.08.2018 04:00 15,9 C 89 % 1018,1 hPa 0,0 l/m N 0,00 h 0 W/m 0,0 km/h (0 Bft)
19.08.2018 05:00 15,1 C 92 % 1017,9 hPa 0,0 l/m N 0,00 h 0 W/m 0,0 km/h (0 Bft)
19.08.2018 06:00 14,9 C 92 % 1018,1 hPa 0,0 l/m N 0,00 h 15 W/m 0,1 km/h (0 Bft)
19.08.2018 07:00 15,4 C 90 % 1018,5 hPa 0,0 l/m N 0,17 h 84 W/m 0,0 km/h (0 Bft)
19.08.2018 08:00 18,5 C 78 % 1018,5 hPa 0,0 l/m NO 1,00 h 253 W/m 0,3 km/h (0 Bft)
19.08.2018 09:00 21,3 C 64 % 1018,6 hPa 0,0 l/m N 0,75 h 335 W/m 4,3 km/h (1 Bft)
19.08.2018 10:00 23,5 C 59 % 1018,6 hPa 0,0 l/m O-NO 0,92 h 533 W/m 7,8 km/h (2 Bft)
19.08.2018 11:00 25,2 C 57 % 1017,9 hPa 0,0 l/m O 1,00 h 698 W/m 8,7 km/h (2 Bft)
19.08.2018 12:00 26,7 C 52 % 1017,4 hPa 0,0 l/m O 0,67 h 557 W/m 7,9 km/h (2 Bft)
19.08.2018 13:00 27,6 C 50 % 1017,0 hPa 0,0 l/m NO 0,75 h 693 W/m 11,5 km/h (2 Bft)
19.08.2018 14:00 28,9 C 45 % 1016,6 hPa 0,0 l/m NO 0,92 h 852 W/m 11,5 km/h (2 Bft)
19.08.2018 15:00 29,6 C 42 % 1016,1 hPa 0,0 l/m O-SO 0,92 h 688 W/m 10,1 km/h (2 Bft)
19.08.2018 16:00 29,4 C 41 % 1015,5 hPa 0,0 l/m O-NO 0,58 h 424 W/m 10,7 km/h (2 Bft)
19.08.2018 17:00 29,3 C 41 % 1015,1 hPa 0,0 l/m O-NO 0,83 h 392 W/m 5,2 km/h (1 Bft)
19.08.2018 18:00 28,3 C 44 % 1015,1 hPa 0,0 l/m N 0,17 h 147 W/m 2,4 km/h (1 Bft)
19.08.2018 19:00 26,1 C 53 % 1015,0 hPa 0,0 l/m N 0,00 h 54 W/m 0,0 km/h (0 Bft)
19.08.2018 20:00 23,9 C 61 % 1015,3 hPa 0,0 l/m N 0,00 h 9 W/m 0,4 km/h (0 Bft)
19.08.2018 21:00 23,3 C 63 % 1015,8 hPa 0,0 l/m N 0,00 h 0 W/m 0,0 km/h (0 Bft)
19.08.2018 22:00 21,9 C 69 % 1015,8 hPa 0,0 l/m N 0,00 h 0 W/m 0,0 km/h (0 Bft)
19.08.2018 23:00 21,0 C 72 % 1016,1 hPa 0,0 l/m O-NO 0,00 h 0 W/m 1,6 km/h (1 Bft)
Min-Datum _ 15.08.18 16.08.18 13.08.18 - - - - 13.08.18
_ Min-Zeit 05:50 16:30 18:40 - - - - 00:00
Minimum _ 11,2 C 36 % 1007,3 hPa - - - - 0,0 km/h (0 Bft)
Max-Datum _ 19.08.18 14.08.18 18.08.18 18.08.18 - 13.08.18 14.08.18 13.08.18
_ Max-Zeit 15:05 07:35 23:55 04:00 - 06:25 13:45 14:40
Maximum _ 30,1 C 99 % 1018,7 hPa 0,4 l/m - 0,08 h 1092 W/m 35,4 km/h
SW (5 Bft)
Durchschnitt _ 20,0 C 73 % 1014,1 hPa #1,2 l/m SW #52:20 h 332 W/m 5,3 km/h (1 Bft)